Time;durP1;ratioP1;P1;durP2;ratioP2;P2;SDS_P1;SDS_P2;PMS_P1;PMS_P2;Temp;Humidity;BMP_temperature;BMP_pressure;BME280_temperature;BME280_humidity;BME280_pressure;Samples;Min_cycle;Max_cycle;Signal;HPM_P1;HPM_P2
2021/12/26 00:01:50;;;;;;;11.32;6.40;;;;;;;1.35;100.00;98979.31;8240705;28;20061;-82
2021/12/26 00:06:00;;;;;;;15.75;7.32;;;;;;;1.41;100.00;98972.22;8236202;28;20038;-83
2021/12/26 00:10:21;;;;;;;10.57;5.85;;;;;;;1.32;100.00;98976.19;8247027;28;20047;-82
2021/12/26 00:14:21;;;;;;;15.63;7.72;;;;;;;1.28;100.00;98967.66;8241424;28;20154;-83
2021/12/26 00:18:22;;;;;;;14.38;8.02;;;;;;;1.26;100.00;98966.19;8243059;28;20521;-83
2021/12/26 00:22:24;;;;;;;13.95;8.43;;;;;;;1.38;100.00;98963.66;8260949;28;20030;-82
2021/12/26 00:26:24;;;;;;;11.60;6.55;;;;;;;1.32;100.00;98954.47;8257580;28;20038;-84
2021/12/26 00:30:26;;;;;;;13.02;7.35;;;;;;;1.31;100.00;98958.25;8260518;28;20066;-83
2021/12/26 00:34:27;;;;;;;11.18;6.22;;;;;;;1.31;100.00;98956.38;8256361;28;20124;-82
2021/12/26 00:38:28;;;;;;;13.65;7.43;;;;;;;1.26;100.00;98955.31;8251108;28;20105;-83
2021/12/26 00:42:29;;;;;;;17.17;11.98;;;;;;;1.26;100.00;98952.59;8259008;28;20089;-82
2021/12/26 00:46:29;;;;;;;15.60;10.02;;;;;;;1.26;100.00;98937.16;8251404;28;20062;-82
2021/12/26 00:50:37;;;;;;;14.35;8.40;;;;;;;1.26;100.00;98937.16;8237953;28;20420;-82
2021/12/26 00:54:38;;;;;;;13.90;7.30;;;;;;;1.18;100.00;98942.78;8258175;28;20415;-82
2021/12/26 00:58:38;;;;;;;14.30;7.35;;;;;;;1.23;100.00;98940.28;8236450;28;20068;-82
2021/12/26 01:02:39;;;;;;;12.90;7.10;;;;;;;1.27;100.00;98932.56;8253718;28;20045;-82
2021/12/26 01:06:41;;;;;;;15.33;8.40;;;;;;;1.28;100.00;98942.34;8259344;28;20030;-83
2021/12/26 01:10:49;;;;;;;15.00;9.20;;;;;;;1.28;100.00;98942.34;8237244;28;20049;-83
2021/12/26 01:15:09;;;;;;;16.92;8.50;;;;;;;1.34;100.00;98957.81;8255341;28;20536;-83
2021/12/26 01:20:37;;;;;;;15.93;8.20;;;;;;;1.29;100.00;98963.88;8238984;28;20072;-83
2021/12/26 01:25:20;;;;;;;12.07;7.70;;;;;;;1.30;100.00;98959.28;8223698;23;20196;-83
2021/12/26 01:30:20;;;;;;;13.45;7.18;;;;;;;1.34;100.00;98955.94;8223200;28;20039;-83
2021/12/26 01:34:28;;;;;;;14.25;7.38;;;;;;;1.36;100.00;98967.41;8205575;28;20038;-82
2021/12/26 01:43:57;;;;;;;;;;;;;;;1.35;100.00;98959.47;8219181;28;20427;-84
2021/12/26 01:48:26;;;;;;;16.60;7.60;;;;;;;1.34;100.00;98958.66;8224224;28;19928;-84
2021/12/26 01:52:26;;;;;;;14.98;7.80;;;;;;;1.38;99.24;98955.50;8224619;28;20030;-83
2021/12/26 01:56:28;;;;;;;12.98;7.18;;;;;;;1.26;99.17;98950.72;8263724;28;20031;-83
2021/12/26 02:00:33;;;;;;;14.23;7.35;;;;;;;1.30;99.99;98948.41;8229384;28;20043;-85
2021/12/26 02:04:37;;;;;;;21.63;11.98;;;;;;;1.24;99.60;98955.53;8226275;28;20046;-84
2021/12/26 02:08:37;;;;;;;17.13;10.70;;;;;;;1.27;99.78;98965.94;8252714;28;20369;-83
2021/12/26 02:12:40;;;;;;;21.92;14.68;;;;;;;1.26;99.89;98964.28;8228847;28;20035;-82
2021/12/26 02:16:41;;;;;;;18.75;10.60;;;;;;;1.29;99.54;98960.34;8232392;28;20400;-82
2021/12/26 02:27:31;;;;;;;15.20;8.50;;;;;;;1.25;98.84;98954.50;8237983;28;20041;-82
2021/12/26 02:29:51;;;;;;;15.40;8.15;;;;;;;1.33;99.62;98951.53;8230458;28;20400;-82
2021/12/26 02:33:52;;;;;;;20.58;10.70;;;;;;;1.29;98.89;98946.75;8211851;28;20038;-83
2021/12/26 02:38:01;;;;;;;16.55;8.65;;;;;;;1.25;98.61;98946.34;8229777;28;20130;-83
2021/12/26 02:42:12;;;;;;;15.90;9.75;;;;;;;1.27;99.08;98946.94;8215019;28;20035;-83
2021/12/26 02:46:13;;;;;;;19.10;9.02;;;;;;;1.32;99.28;98944.44;8230456;28;20031;-83
2021/12/26 02:50:18;;;;;;;16.48;8.40;;;;;;;1.30;98.57;98954.69;8222288;28;20034;-83
2021/12/26 02:54:22;;;;;;;17.60;8.23;;;;;;;1.29;99.14;98936.72;8206538;28;20062;-83
2021/12/26 02:58:23;;;;;;;14.95;7.85;;;;;;;1.35;98.96;98935.06;8196518;28;20181;-82
2021/12/26 03:02:24;;;;;;;15.65;8.63;;;;;;;1.40;99.23;98926.25;8216793;28;20432;-83
2021/12/26 03:06:32;;;;;;;24.05;13.90;;;;;;;1.40;99.15;98923.53;8232845;28;20037;-82
2021/12/26 03:10:33;;;;;;;20.50;12.48;;;;;;;1.38;98.97;98923.78;8231634;28;20118;-83
2021/12/26 03:14:35;;;;;;;16.73;9.27;;;;;;;1.31;98.64;98923.78;8237765;28;20079;-83
2021/12/26 03:18:35;;;;;;;15.17;8.33;;;;;;;1.27;98.50;98932.56;8241732;28;20080;-82
2021/12/26 03:22:36;;;;;;;15.25;8.52;;;;;;;1.26;98.30;98941.75;8227271;28;20091;-83
2021/12/26 03:26:36;;;;;;;16.20;8.65;;;;;;;1.22;98.55;98932.34;8213992;28;20093;-82
2021/12/26 03:30:39;;;;;;;21.00;11.43;;;;;;;1.23;98.36;98937.56;8223882;28;20108;-82
2021/12/26 03:34:48;;;;;;;21.27;10.63;;;;;;;1.21;98.67;98939.66;8225097;28;20085;-83
2021/12/26 03:38:48;;;;;;;18.70;9.50;;;;;;;1.19;98.32;98935.47;8223158;28;20457;-83
2021/12/26 03:42:59;;;;;;;16.52;8.95;;;;;;;1.21;98.76;98941.53;8243721;28;20492;-83
2021/12/26 03:46:59;;;;;;;17.85;10.43;;;;;;;1.20;98.68;98939.88;8245468;28;20031;-83
2021/12/26 03:51:02;;;;;;;17.08;9.95;;;;;;;1.25;98.79;98940.94;8240490;28;20034;-84
2021/12/26 03:55:03;;;;;;;20.33;10.45;;;;;;;1.23;98.77;98934.88;8212659;28;20035;-82
2021/12/26 03:59:05;;;;;;;18.13;9.70;;;;;;;1.27;98.41;98936.09;8231386;28;20035;-82
2021/12/26 04:03:06;;;;;;;19.45;9.88;;;;;;;1.11;98.59;98928.41;8221382;28;20039;-82
2021/12/26 04:07:15;;;;;;;17.17;10.38;;;;;;;1.08;98.91;98934.25;8221739;28;20609;-83
2021/12/26 04:11:16;;;;;;;19.20;10.02;;;;;;;1.17;98.51;98935.72;8246904;28;20038;-83
2021/12/26 04:15:20;;;;;;;19.80;9.50;;;;;;;1.17;99.19;98937.59;8225403;28;20377;-83
2021/12/26 04:19:24;;;;;;;18.00;9.35;;;;;;;1.23;98.66;98931.31;8213821;28;20037;-83
2021/12/26 04:23:24;;;;;;;21.38;9.35;;;;;;;1.23;99.46;98926.72;8219080;28;20034;-83
2021/12/26 04:27:26;;;;;;;21.05;10.60;;;;;;;1.19;98.68;98928.19;8208525;28;20042;-83
2021/12/26 04:31:27;;;;;;;27.50;16.15;;;;;;;1.17;99.10;98938.41;8232418;28;20414;-83
2021/12/26 04:35:28;;;;;;;21.77;12.13;;;;;;;1.18;99.05;98937.38;8219958;28;20041;-83
2021/12/26 04:45:15;;;;;;;23.27;10.70;;;;;;;1.26;99.07;98920.88;8223390;28;20115;-84
2021/12/26 04:49:35;;;;;;;21.10;10.52;;;;;;;1.25;98.98;98926.50;8227348;28;20041;-83
2021/12/26 04:53:39;;;;;;;22.17;10.40;;;;;;;1.28;99.13;98929.66;8222377;28;20058;-85
2021/12/26 04:57:39;;;;;;;22.58;11.60;;;;;;;1.29;98.77;98925.88;8227375;28;20050;-85
2021/12/26 05:01:45;;;;;;;21.77;12.00;;;;;;;1.31;99.28;98933.81;8219196;28;20042;-84
2021/12/26 05:05:47;;;;;;;30.05;14.45;;;;;;;1.27;98.45;98936.09;8231058;28;20042;-84
2021/12/26 05:09:48;;;;;;;20.63;10.82;;;;;;;1.29;98.49;98936.72;8229574;28;20034;-83
2021/12/26 05:13:48;;;;;;;22.33;10.40;;;;;;;1.14;98.07;98933.41;8225241;28;20044;-83
2021/12/26 05:17:50;;;;;;;20.17;9.65;;;;;;;1.09;98.39;98934.03;8206412;28;20106;-83
2021/12/26 05:21:53;;;;;;;18.80;10.80;;;;;;;1.12;98.93;98940.91;8222116;28;20142;-84
2021/12/26 05:25:54;;;;;;;22.40;11.77;;;;;;;1.21;99.19;98952.41;8248888;28;20042;-82
2021/12/26 05:29:55;;;;;;;22.67;11.23;;;;;;;1.28;98.69;98945.94;8208605;28;20295;-82
2021/12/26 05:33:57;;;;;;;19.33;10.65;;;;;;;1.20;98.01;98946.13;8212186;28;20043;-83
2021/12/26 05:37:58;;;;;;;17.67;10.00;;;;;;;1.24;98.66;98939.22;8219797;28;20118;-83
2021/12/26 05:41:59;;;;;;;20.13;9.82;;;;;;;1.18;98.49;98934.66;8213750;28;20062;-82
2021/12/26 05:46:07;;;;;;;20.95;9.88;;;;;;;1.21;98.14;98934.22;8226566;28;20034;-83
2021/12/26 05:50:11;;;;;;;21.33;10.73;;;;;;;1.17;98.10;98933.00;8223097;28;20412;-83
2021/12/26 05:54:12;;;;;;;19.40;10.07;;;;;;;1.22;98.58;98935.91;8224852;28;20116;-83
2021/12/26 05:58:16;;;;;;;21.70;11.68;;;;;;;1.24;98.07;98928.38;8222916;28;20082;-84
2021/12/26 06:02:17;;;;;;;26.70;13.63;;;;;;;1.13;98.22;98932.59;8198533;28;20039;-82
2021/12/26 06:06:19;;;;;;;20.08;10.13;;;;;;;1.16;98.47;98933.19;8221521;28;20542;-82
2021/12/26 06:10:22;;;;;;;22.25;10.38;;;;;;;1.07;98.46;98922.56;8245492;28;20034;-83
2021/12/26 06:14:22;;;;;;;25.75;11.10;;;;;;;0.98;99.45;98926.56;8220275;28;20030;-82
2021/12/26 06:18:23;;;;;;;19.50;9.95;;;;;;;1.13;99.44;98932.59;8221564;28;20081;-82
2021/12/26 06:22:44;;;;;;;24.20;12.05;;;;;;;1.11;98.50;98926.53;8217130;28;20064;-83
2021/12/26 06:27:04;;;;;;;23.65;12.32;;;;;;;1.21;98.48;98923.38;8219670;28;20054;-82
2021/12/26 06:31:34;;;;;;;19.02;11.23;;;;;;;1.14;98.52;98926.09;8199231;28;20093;-82
2021/12/26 06:35:53;;;;;;;23.58;11.00;;;;;;;1.15;98.80;98929.66;8227668;28;20085;-82
2021/12/26 06:40:13;;;;;;;19.73;9.68;;;;;;;1.17;98.60;98924.84;8223902;28;20069;-82
2021/12/26 06:44:33;;;;;;;23.95;11.18;;;;;;;1.19;98.98;98930.06;8226875;28;20125;-82
2021/12/26 06:48:41;;;;;;;23.85;10.20;;;;;;;1.17;98.98;98922.13;8219800;28;20027;-82
2021/12/26 06:52:43;;;;;;;22.53;10.43;;;;;;;1.19;98.98;98920.06;8238687;28;20035;-83
2021/12/26 06:56:43;;;;;;;24.85;11.20;;;;;;;1.23;99.01;98921.28;8224412;28;20035;-82
2021/12/26 07:00:44;;;;;;;21.85;10.18;;;;;;;1.24;98.89;98920.25;8220338;28;20499;-83
2021/12/26 07:04:46;;;;;;;20.83;11.13;;;;;;;1.13;98.91;98920.88;8204166;28;20073;-83
2021/12/26 07:08:48;;;;;;;22.13;11.03;;;;;;;1.13;98.80;98918.16;8216875;28;20027;-82
2021/12/26 07:12:48;;;;;;;24.55;11.98;;;;;;;1.12;98.47;98919.22;8229295;28;20641;-83
2021/12/26 07:17:10;;;;;;;20.52;10.27;;;;;;;1.19;99.28;98909.22;8218983;28;20039;-82
2021/12/26 07:21:10;;;;;;;21.88;9.88;;;;;;;1.23;98.78;98928.59;8211841;28;20412;-82
2021/12/26 07:25:21;;;;;;;24.20;10.25;;;;;;;1.23;99.03;98925.88;8234546;28;20030;-82
2021/12/26 07:29:21;;;;;;;19.23;9.65;;;;;;;1.21;98.57;98934.22;8230701;28;20035;-82
2021/12/26 07:33:22;;;;;;;22.17;9.43;;;;;;;1.07;98.45;98938.00;8242312;28;20038;-83
2021/12/26 07:37:27;;;;;;;21.27;10.00;;;;;;;1.24;99.32;98941.94;8235188;28;20452;-83
2021/12/26 07:41:29;;;;;;;23.70;10.68;;;;;;;1.07;98.71;98947.00;8211444;28;20492;-83
2021/12/26 07:45:30;;;;;;;21.45;10.82;;;;;;;1.13;99.11;98948.88;8229746;28;20096;-83
2021/12/26 07:49:35;;;;;;;19.92;9.73;;;;;;;1.15;98.80;98951.34;8225542;28;20129;-83
2021/12/26 07:53:59;;;;;;;21.75;10.25;;;;;;;1.01;99.13;98949.69;8221199;28;20046;-83
2021/12/26 07:58:18;;;;;;;21.05;9.82;;;;;;;1.13;98.43;98950.72;8228573;28;20049;-83
2021/12/26 08:02:52;;;;;;;20.45;9.82;;;;;;;1.20;98.97;98959.72;8173593;28;20047;-83
2021/12/26 08:07:14;;;;;;;22.33;10.50;;;;;;;1.25;99.11;98962.63;8219752;28;20074;-83
2021/12/26 08:11:15;;;;;;;22.67;10.35;;;;;;;1.32;99.32;98954.47;8221790;28;20039;-83
2021/12/26 08:15:16;;;;;;;20.30;9.40;;;;;;;1.44;98.98;98955.50;8220184;28;20412;-82
2021/12/26 08:19:16;;;;;;;22.23;9.80;;;;;;;1.46;98.38;98952.56;8218831;28;20043;-83
2021/12/26 08:23:17;;;;;;;18.05;8.52;;;;;;;1.51;97.98;98959.03;8227695;28;20523;-84
2021/12/26 08:27:18;;;;;;;24.30;11.00;;;;;;;1.47;97.53;98960.50;8226173;28;20038;-84
2021/12/26 08:31:20;;;;;;;20.95;9.38;;;;;;;1.62;97.67;98956.72;8242494;28;20030;-82
2021/12/26 08:35:21;;;;;;;21.83;10.25;;;;;;;1.72;97.57;98965.25;8240203;28;20455;-83
2021/12/26 08:39:22;;;;;;;23.40;10.05;;;;;;;1.75;97.38;98954.78;8232091;28;20034;-82
2021/12/26 08:43:23;;;;;;;26.27;11.07;;;;;;;1.74;96.83;98952.28;8236585;28;20126;-83
2021/12/26 08:47:23;;;;;;;22.20;10.05;;;;;;;1.69;97.61;98961.06;8228747;28;20043;-83
2021/12/26 08:51:24;;;;;;;23.95;10.55;;;;;;;1.67;97.83;98963.19;8232433;28;20034;-83
2021/12/26 08:55:24;;;;;;;28.15;10.80;;;;;;;1.82;98.61;98955.59;8213276;28;20035;-81
2021/12/26 08:59:29;;;;;;;23.85;10.65;;;;;;;1.93;97.72;98958.69;8214107;28;20113;-83
2021/12/26 09:03:31;;;;;;;21.35;9.52;;;;;;;1.90;97.42;98965.38;8210956;28;20030;-81
2021/12/26 09:07:31;;;;;;;25.48;11.00;;;;;;;2.08;97.92;98978.28;8240321;28;20384;-83
2021/12/26 09:11:33;;;;;;;22.10;10.68;;;;;;;2.20;97.78;98967.56;8225028;28;20034;-82
2021/12/26 09:15:34;;;;;;;21.45;9.68;;;;;;;2.32;97.61;98973.16;8239187;28;20031;-83
2021/12/26 09:19:35;;;;;;;23.95;10.52;;;;;;;2.31;97.35;98969.59;8225866;28;20035;-82
2021/12/26 09:23:35;;;;;;;19.42;9.45;;;;;;;2.35;97.42;98972.72;8212271;28;20037;-87
2021/12/26 09:27:37;;;;;;;24.48;11.40;;;;;;;2.46;96.93;98967.44;8227657;28;20045;-81
2021/12/26 09:31:37;;;;;;;21.42;10.27;;;;;;;2.49;96.80;98963.44;8228570;28;20089;-82
2021/12/26 09:35:37;;;;;;;21.92;10.18;;;;;;;2.45;96.69;98973.09;8219958;28;20708;-83
2021/12/26 09:39:39;;;;;;;19.77;9.57;;;;;;;2.41;96.93;98972.72;8239360;28;20034;-84
2021/12/26 09:43:43;;;;;;;21.88;10.90;;;;;;;2.43;97.84;98975.19;8226864;28;20646;-83
2021/12/26 09:47:45;;;;;;;22.05;10.18;;;;;;;2.36;97.11;98977.13;8226893;28;20030;-82
2021/12/26 09:51:45;;;;;;;20.35;9.73;;;;;;;2.37;97.79;98968.75;8205092;28;20109;-82
2021/12/26 09:55:46;;;;;;;22.02;11.27;;;;;;;2.45;97.18;98978.53;8216239;28;20492;-81
2021/12/26 09:59:48;;;;;;;26.50;11.75;;;;;;;2.50;97.58;98976.00;8213840;28;20058;-83
2021/12/26 10:03:50;;;;;;;22.27;9.75;;;;;;;2.47;97.75;98976.44;8227014;28;20057;-82
2021/12/26 10:08:06;;;;;;;21.85;10.05;;;;;;;2.33;96.70;98974.84;8212911;28;20500;-82
2021/12/26 10:16:22;;;;;;;21.90;9.95;;;;;;;2.30;98.53;98965.22;8297076;28;20042;-82
2021/12/26 10:20:33;;;;;;;20.52;9.27;;;;;;;2.39;97.55;98963.09;8298619;28;20037;-82
2021/12/26 10:24:39;;;;;;;18.15;9.50;;;;;;;2.47;98.06;98952.81;8291336;28;20062;-82
2021/12/26 10:28:40;;;;;;;23.15;10.77;;;;;;;2.48;97.74;98942.75;8291443;28;20022;-84
2021/12/26 10:32:41;;;;;;;18.48;9.20;;;;;;;2.58;97.88;98940.38;8286724;28;20118;-83
2021/12/26 10:36:47;;;;;;;20.23;10.20;;;;;;;2.60;97.92;98927.41;8285921;28;20072;-82
2021/12/26 10:40:49;;;;;;;19.60;9.25;;;;;;;2.53;98.67;98925.75;8262177;28;20041;-82
2021/12/26 10:45:43;;;;;;;;;;;;;;;;;;;;;
2021/12/26 10:50:49;;;;;;;;;;;;;;;;;;;;;
2021/12/26 10:55:19;;;;;;;20.23;9.63;;;;;;;2.38;100.00;98926.06;8247889;28;20604;-82
2021/12/26 10:59:20;;;;;;;23.10;10.35;;;;;;;2.48;100.00;98926.44;8277989;28;20042;-82
2021/12/26 11:03:27;;;;;;;19.63;8.95;;;;;;;2.59;99.41;98917.59;8259223;28;20061;-83
2021/12/26 11:07:28;;;;;;;22.55;9.18;;;;;;;2.62;99.80;98919.84;8271373;28;20034;-83
2021/12/26 11:11:30;;;;;;;23.55;9.38;;;;;;;2.77;98.66;98914.09;8261305;28;20030;-82
2021/12/26 11:15:34;;;;;;;24.23;9.32;;;;;;;2.78;98.67;98912.22;8268792;28;20069;-84
2021/12/26 11:19:45;;;;;;;21.77;9.57;;;;;;;2.86;98.73;98910.03;8283303;28;20125;-82
2021/12/26 11:23:46;;;;;;;22.77;9.88;;;;;;;2.88;98.67;98913.34;8268899;28;20042;-81
2021/12/26 11:27:47;;;;;;;23.02;9.27;;;;;;;3.03;99.13;98906.75;8263715;28;20111;-82
2021/12/26 11:32:07;;;;;;;22.90;10.00;;;;;;;2.99;97.84;98903.66;8247202;28;20027;-81
2021/12/26 11:36:10;;;;;;;21.27;9.50;;;;;;;3.07;98.09;98903.38;8262654;28;20049;-82
2021/12/26 11:40:14;;;;;;;20.05;10.10;;;;;;;3.04;96.54;98903.00;8272416;28;20050;-83
2021/12/26 11:44:54;;;;;;;22.58;9.90;;;;;;;3.07;97.26;98899.81;8276910;28;20116;-82
2021/12/26 11:49:28;;;;;;;19.88;10.25;;;;;;;3.12;97.50;98889.94;8258191;28;20050;-82
2021/12/26 11:54:25;;;;;;;21.27;8.70;;;;;;;3.09;95.46;98889.53;8268815;28;20057;-83
2021/12/26 11:58:41;;;;;;;22.13;10.07;;;;;;;3.08;96.53;98896.88;8271152;28;20030;-84
2021/12/26 12:02:48;;;;;;;20.30;10.32;;;;;;;3.14;96.63;98893.25;8275098;28;20026;-84
2021/12/26 12:06:50;;;;;;;21.45;10.27;;;;;;;3.07;96.90;98884.31;8281739;28;20098;-86
2021/12/26 12:10:54;;;;;;;18.63;8.85;;;;;;;3.16;97.21;98885.69;8274516;28;20035;-82
2021/12/26 12:14:59;;;;;;;24.67;9.90;;;;;;;3.34;97.06;98876.72;8291898;28;20062;-82
2021/12/26 12:19:04;;;;;;;19.52;8.00;;;;;;;3.42;96.51;98883.75;8240366;28;20156;-82
2021/12/26 12:23:04;;;;;;;20.05;10.00;;;;;;;3.50;96.18;98882.63;8268236;28;20133;-85
2021/12/26 12:27:09;;;;;;;19.15;8.85;;;;;;;3.37;95.64;98880.88;8281908;28;20138;-84
2021/12/26 12:31:12;;;;;;;18.98;10.00;;;;;;;3.45;96.27;98883.31;8272151;28;20031;-83
2021/12/26 12:35:16;;;;;;;19.40;9.80;;;;;;;3.45;95.56;98885.19;8277108;28;20113;-82
2021/12/26 12:39:18;;;;;;;20.73;10.43;;;;;;;3.41;96.02;98874.75;8277753;28;20109;-81
2021/12/26 12:43:24;;;;;;;19.45;9.38;;;;;;;3.49;96.02;98880.97;8270858;28;20395;-82
2021/12/26 12:47:26;;;;;;;20.77;10.50;;;;;;;3.42;95.18;98870.13;8271863;28;20029;-86
2021/12/26 12:51:26;;;;;;;17.50;8.93;;;;;;;3.33;95.10;98861.44;8264840;28;20036;-83
2021/12/26 12:55:50;;;;;;;19.90;11.07;;;;;;;3.23;95.61;98872.00;8284818;28;20036;-82
2021/12/26 12:59:50;;;;;;;21.20;10.38;;;;;;;3.31;95.65;98869.00;8276868;28;20038;-81
2021/12/26 13:03:59;;;;;;;18.27;8.75;;;;;;;3.28;95.65;98874.06;8265854;28;20040;-82
2021/12/26 13:08:06;;;;;;;21.00;9.90;;;;;;;3.34;96.38;98870.44;8248463;28;20097;-82
2021/12/26 13:12:11;;;;;;;20.00;9.57;;;;;;;3.37;96.33;98864.53;8255807;28;20250;-83
2021/12/26 13:16:11;;;;;;;19.45;9.63;;;;;;;3.28;96.44;98857.72;8266074;28;20057;-82
2021/12/26 13:20:26;;;;;;;19.42;9.98;;;;;;;3.22;97.57;98858.63;8280406;28;20554;-82
2021/12/26 13:24:39;;;;;;;22.67;9.10;;;;;;;3.10;98.68;98844.94;8285694;28;20046;-81
2021/12/26 13:28:39;;;;;;;;;;;;;;;3.06;100.00;98841.81;8274808;28;20447;-81
2021/12/26 13:32:41;;;;;;;21.57;11.57;;;;;;;3.11;100.00;98841.16;8284944;28;19925;-81
2021/12/26 13:36:42;;;;;;;23.15;11.23;;;;;;;3.09;100.00;98835.91;8273589;28;20363;-80
2021/12/26 13:40:50;;;;;;;20.58;9.55;;;;;;;3.07;100.00;98832.59;8271599;28;20037;-82
2021/12/26 13:44:51;;;;;;;20.15;8.95;;;;;;;3.04;100.00;98833.06;8288480;28;20094;-80
2021/12/26 13:48:54;;;;;;;19.48;9.27;;;;;;;3.02;100.00;98832.44;8265420;28;20187;-81
2021/12/26 13:53:07;;;;;;;26.08;11.35;;;;;;;2.97;100.00;98827.69;8280985;28;20488;-81
2021/12/26 13:57:11;;;;;;;20.97;11.13;;;;;;;2.84;100.00;98840.56;8265478;28;20043;-81
2021/12/26 14:01:12;;;;;;;23.08;11.77;;;;;;;2.90;100.00;98831.50;8275543;28;20043;-80
2021/12/26 14:05:13;;;;;;;41.53;19.27;;;;;;;2.91;100.00;98833.16;8270407;28;20038;-80
2021/12/26 14:09:15;;;;;;;25.55;11.35;;;;;;;2.92;100.00;98832.13;8258354;28;20042;-81
2021/12/26 14:13:19;;;;;;;22.92;9.88;;;;;;;2.79;100.00;98837.69;8265737;28;20035;-80
2021/12/26 14:17:20;;;;;;;21.50;9.38;;;;;;;2.86;100.00;98839.31;8268427;28;20399;-80
2021/12/26 14:21:21;;;;;;;23.25;10.15;;;;;;;2.90;100.00;98845.13;8264961;28;20048;-80
2021/12/26 14:25:22;;;;;;;22.83;10.38;;;;;;;2.91;100.00;98844.06;8279797;28;20033;-80
2021/12/26 14:29:24;;;;;;;26.50;14.82;;;;;;;2.86;100.00;98838.47;8247995;28;20491;-80
2021/12/26 14:33:31;;;;;;;26.17;13.23;;;;;;;2.87;100.00;98835.50;8270422;28;20022;-80
2021/12/26 14:37:31;;;;;;;20.33;11.07;;;;;;;2.91;100.00;98831.28;8275675;28;20037;-80
2021/12/26 14:41:33;;;;;;;21.88;9.95;;;;;;;2.86;100.00;98838.47;8279353;28;20067;-81
2021/12/26 14:45:34;;;;;;;23.47;9.60;;;;;;;2.79;100.00;98845.84;8249744;28;20026;-81
2021/12/26 14:49:46;;;;;;;24.55;10.52;;;;;;;2.86;100.00;98843.91;8279244;28;20552;-81
2021/12/26 14:54:04;;;;;;;22.83;12.63;;;;;;;2.89;100.00;98835.31;8275476;28;20034;-80
2021/12/26 14:58:12;;;;;;;27.55;14.90;;;;;;;2.81;100.00;98835.59;8262938;28;20051;-80
2021/12/26 15:02:20;;;;;;;26.67;12.85;;;;;;;2.81;100.00;98841.03;8276464;28;20034;-81
2021/12/26 15:06:20;;;;;;;32.40;16.38;;;;;;;2.79;100.00;98830.34;8278992;28;20065;-80
2021/12/26 15:10:29;;;;;;;27.40;13.05;;;;;;;2.74;100.00;98841.91;8255651;28;20037;-81
2021/12/26 15:14:30;;;;;;;22.10;10.57;;;;;;;2.73;100.00;98839.41;8291430;28;20148;-81
2021/12/26 15:18:31;;;;;;;25.23;11.38;;;;;;;2.79;100.00;98837.69;8274810;28;20039;-80
2021/12/26 15:22:36;;;;;;;24.10;10.20;;;;;;;2.85;100.00;98832.19;8272229;28;20097;-80
2021/12/26 15:26:36;;;;;;;28.95;13.88;;;;;;;2.83;100.00;98828.03;8241236;28;20030;-80
2021/12/26 15:30:38;;;;;;;26.48;13.20;;;;;;;2.89;100.00;98829.88;8260172;28;20038;-79
2021/12/26 15:34:41;;;;;;;25.87;12.03;;;;;;;2.96;100.00;98830.63;8276730;28;20038;-80
2021/12/26 15:38:43;;;;;;;28.05;12.50;;;;;;;3.00;100.00;98831.00;8262594;28;20046;-80
2021/12/26 15:42:44;;;;;;;27.30;12.03;;;;;;;2.93;100.00;98828.34;8282258;28;20060;-81
2021/12/26 15:46:47;;;;;;;28.23;11.82;;;;;;;2.92;100.00;98834.84;8261401;28;20022;-80
2021/12/26 15:50:47;;;;;;;27.40;11.85;;;;;;;2.95;100.00;98837.13;8286430;28;20041;-80
2021/12/26 15:54:48;;;;;;;22.92;10.30;;;;;;;2.96;100.00;98836.06;8273709;28;20030;-81
2021/12/26 15:58:50;;;;;;;24.88;10.55;;;;;;;2.97;100.00;98837.72;8271796;28;20492;-81
2021/12/26 16:02:50;;;;;;;22.30;10.60;;;;;;;3.06;100.00;98832.81;8244953;28;21805;-81
2021/12/26 16:06:51;;;;;;;32.10;14.60;;;;;;;3.10;100.00;98829.44;8248722;28;20029;-81
2021/12/26 16:10:51;;;;;;;31.65;14.55;;;;;;;3.11;100.00;98830.25;8249086;28;20514;-81
2021/12/26 16:14:52;;;;;;;29.77;12.85;;;;;;;3.10;100.00;98825.88;8262773;28;20038;-81
2021/12/26 16:18:52;;;;;;;31.90;16.42;;;;;;;3.09;100.00;98827.75;8275995;28;20027;-81
2021/12/26 16:22:52;;;;;;;36.90;16.85;;;;;;;3.08;100.00;98830.72;8276741;28;20038;-82
2021/12/26 16:26:53;;;;;;;32.22;15.73;;;;;;;3.11;100.00;98822.09;8259489;28;20030;-80
2021/12/26 16:30:53;;;;;;;65.15;27.20;;;;;;;3.10;100.00;98824.00;8276403;28;20038;-80
2021/12/26 16:34:54;;;;;;;46.95;21.13;;;;;;;3.10;100.00;98821.25;8292160;28;20049;-82
2021/12/26 16:38:55;;;;;;;58.47;25.33;;;;;;;3.16;100.00;98820.38;8285827;28;20141;-81
2021/12/26 16:42:57;;;;;;;51.17;23.63;;;;;;;3.17;100.00;98824.72;8288045;28;20048;-81
2021/12/26 16:46:59;;;;;;;45.72;21.75;;;;;;;3.20;100.00;98812.56;8287396;28;20135;-81
2021/12/26 16:51:00;;;;;;;33.65;14.38;;;;;;;3.22;100.00;98820.53;8268857;28;20057;-80
2021/12/26 16:55:00;;;;;;;37.17;18.20;;;;;;;3.26;100.00;98813.56;8269179;28;20039;-81
2021/12/26 16:59:02;;;;;;;26.50;13.95;;;;;;;3.26;100.00;98808.09;8259912;28;20035;-81
2021/12/26 17:03:02;;;;;;;26.98;12.88;;;;;;;3.26;100.00;98808.94;8284632;28;20034;-80
2021/12/26 17:07:03;;;;;;;27.63;13.73;;;;;;;3.27;100.00;98812.47;8281941;28;20033;-81
2021/12/26 17:11:03;;;;;;;29.42;12.98;;;;;;;3.20;100.00;98818.84;8265189;28;20034;-80
2021/12/26 17:15:04;;;;;;;29.45;13.95;;;;;;;3.12;100.00;98812.84;8279269;28;20046;-80
2021/12/26 17:19:05;;;;;;;26.33;12.75;;;;;;;3.06;100.00;98822.75;8276843;28;20038;-80
2021/12/26 17:23:06;;;;;;;29.05;13.75;;;;;;;3.08;100.00;98819.81;8275982;28;20042;-81
2021/12/26 17:27:26;;;;;;;22.90;11.73;;;;;;;3.10;100.00;98824.00;8281964;28;20054;-79
2021/12/26 17:31:26;;;;;;;29.63;12.43;;;;;;;3.20;100.00;98827.00;8287726;28;20034;-80
2021/12/26 17:35:31;;;;;;;30.38;14.18;;;;;;;3.22;100.00;98823.25;8263773;28;20038;-80
2021/12/26 17:39:41;;;;;;;30.98;13.55;;;;;;;3.17;100.00;98824.72;8254705;28;20030;-82
2021/12/26 17:43:42;;;;;;;31.60;14.10;;;;;;;3.18;100.00;98820.13;8285939;28;20029;-81
2021/12/26 17:47:43;;;;;;;30.75;13.98;;;;;;;3.24;100.00;98819.22;8269233;28;20030;-81
2021/12/26 17:51:43;;;;;;;27.15;12.10;;;;;;;3.26;100.00;98821.72;8263717;28;20033;-81
2021/12/26 17:55:45;;;;;;;26.52;13.38;;;;;;;3.23;100.00;98819.44;8282058;28;20034;-81
2021/12/26 17:59:45;;;;;;;28.15;13.50;;;;;;;3.26;100.00;98822.56;8292194;28;20568;-81
2021/12/26 18:03:45;;;;;;;28.00;13.85;;;;;;;3.30;100.00;98822.91;8282302;28;20041;-81
2021/12/26 18:07:47;;;;;;;27.88;14.18;;;;;;;3.32;100.00;98827.09;8272947;28;20038;-80
2021/12/26 18:11:48;;;;;;;29.95;13.20;;;;;;;3.32;100.00;98818.91;8275515;28;20041;-82
2021/12/26 18:15:49;;;;;;;27.65;12.88;;;;;;;3.39;100.00;98813.38;8263405;28;20376;-80
2021/12/26 18:19:49;;;;;;;29.50;12.52;;;;;;;3.39;100.00;98805.22;8282161;28;20057;-81
2021/12/26 18:23:49;;;;;;;27.95;12.60;;;;;;;3.39;100.00;98800.63;8272143;28;20117;-81
2021/12/26 18:27:50;;;;;;;28.35;12.05;;;;;;;3.41;100.00;98803.09;8263194;28;20088;-82
2021/12/26 18:31:51;;;;;;;23.33;12.48;;;;;;;3.45;100.00;98803.47;8276215;28;20022;-81
2021/12/26 18:35:51;;;;;;;29.10;13.50;;;;;;;3.46;100.00;98800.53;8258317;28;20038;-81
2021/12/26 18:39:52;;;;;;;30.55;14.23;;;;;;;3.48;100.00;98790.25;8283634;28;20049;-82
2021/12/26 18:43:53;;;;;;;26.48;13.73;;;;;;;3.48;100.00;98783.94;8261339;28;20052;-81
2021/12/26 18:47:54;;;;;;;27.92;15.52;;;;;;;3.51;100.00;98783.50;8279149;28;20813;-81
2021/12/26 18:51:54;;;;;;;23.42;12.15;;;;;;;3.51;100.00;98778.91;8261247;28;20043;-80
2021/12/26 18:55:55;;;;;;;24.55;12.27;;;;;;;3.45;100.00;98776.25;8260971;28;20045;-80
2021/12/26 18:59:56;;;;;;;26.73;12.65;;;;;;;3.39;100.00;98783.44;8268727;28;20031;-80
2021/12/26 19:03:58;;;;;;;26.30;11.98;;;;;;;3.39;100.00;98773.41;8299167;28;20045;-80
2021/12/26 19:07:58;;;;;;;30.45;12.35;;;;;;;3.39;100.00;98773.41;8268325;28;20053;-80
2021/12/26 19:11:59;;;;;;;31.70;12.65;;;;;;;3.40;100.00;98768.78;8290152;28;20561;-80
2021/12/26 19:16:00;;;;;;;29.13;13.23;;;;;;;3.39;100.00;98767.09;8272632;28;20046;-80
2021/12/26 19:20:01;;;;;;;31.40;12.80;;;;;;;3.37;100.00;98758.34;8275766;28;21302;-81
2021/12/26 19:24:03;;;;;;;27.02;13.60;;;;;;;3.39;100.00;98750.75;8277492;28;20035;-80